sensor_id;sensor_type;location;lat;lon;timestamp;pressure;altitude;pressure_sealevel;temperature;humidity
4814;BME280;15375;48.540;9.268;2023-04-06T00:01:19;97573.47;;;0.71;81.03
4814;BME280;15375;48.540;9.268;2023-04-06T00:03:44;97583.78;;;0.84;81.29
4814;BME280;15375;48.540;9.268;2023-04-06T00:06:09;97538.34;;;0.60;81.55
4814;BME280;15375;48.540;9.268;2023-04-06T00:08:35;97571.16;;;0.85;81.63
4814;BME280;15375;48.540;9.268;2023-04-06T00:11:00;97557.03;;;0.72;81.91
4814;BME280;15375;48.540;9.268;2023-04-06T00:13:26;97576.16;;;0.86;81.62
4814;BME280;15375;48.540;9.268;2023-04-06T00:15:51;97538.09;;;0.65;81.16
4814;BME280;15375;48.540;9.268;2023-04-06T00:18:17;97532.53;;;0.58;81.06
4814;BME280;15375;48.540;9.268;2023-04-06T00:20:42;97569.41;;;0.77;80.33
4814;BME280;15375;48.540;9.268;2023-04-06T00:23:07;97524.50;;;0.42;80.49
4814;BME280;15375;48.540;9.268;2023-04-06T00:25:33;97562.06;;;0.74;81.35
4814;BME280;15375;48.540;9.268;2023-04-06T00:27:59;97561.88;;;0.67;80.65
4814;BME280;15375;48.540;9.268;2023-04-06T00:30:24;97543.03;;;0.47;81.62
4814;BME280;15375;48.540;9.268;2023-04-06T00:32:49;97534.28;;;0.35;82.57
4814;BME280;15375;48.540;9.268;2023-04-06T00:35:15;97514.59;;;0.15;81.93
4814;BME280;15375;48.540;9.268;2023-04-06T00:37:40;97541.53;;;0.19;82.60
4814;BME280;15375;48.540;9.268;2023-04-06T00:40:06;97553.38;;;0.18;83.25
4814;BME280;15375;48.540;9.268;2023-04-06T00:42:32;97538.81;;;0.03;83.83
4814;BME280;15375;48.540;9.268;2023-04-06T00:44:59;97568.88;;;0.24;84.85
4814;BME280;15375;48.540;9.268;2023-04-06T00:47:25;97538.81;;;0.03;84.64
4814;BME280;15375;48.540;9.268;2023-04-06T00:49:52;97528.50;;;-0.11;85.17
4814;BME280;15375;48.540;9.268;2023-04-06T00:52:18;97545.28;;;-0.14;85.29
4814;BME280;15375;48.540;9.268;2023-04-06T00:54:44;97559.09;;;-0.12;85.83
4814;BME280;15375;48.540;9.268;2023-04-06T00:57:11;97529.94;;;-0.29;86.37
4814;BME280;15375;48.540;9.268;2023-04-06T00:59:37;97510.38;;;-0.29;87.11
4814;BME280;15375;48.540;9.268;2023-04-06T01:02:02;97536.19;;;-0.09;86.59
4814;BME280;15375;48.540;9.268;2023-04-06T01:04:28;97520.63;;;-0.19;86.17
4814;BME280;15375;48.540;9.268;2023-04-06T01:06:53;97531.56;;;-0.24;87.27
4814;BME280;15375;48.540;9.268;2023-04-06T01:09:18;97551.41;;;-0.13;86.94
4814;BME280;15375;48.540;9.268;2023-04-06T01:11:44;97539.63;;;-0.24;86.73
4814;BME280;15375;48.540;9.268;2023-04-06T01:14:10;97534.50;;;-0.29;86.63
4814;BME280;15375;48.540;9.268;2023-04-06T01:16:36;97528.09;;;-0.40;87.03
4814;BME280;15375;48.540;9.268;2023-04-06T01:19:08;97537.09;;;-0.33;87.09
4814;BME280;15375;48.540;9.268;2023-04-06T01:21:34;97514.47;;;-0.47;87.23
4814;BME280;15375;48.540;9.268;2023-04-06T01:23:59;97515.31;;;-0.31;86.30
4814;BME280;15375;48.540;9.268;2023-04-06T01:26:25;97511.06;;;-0.32;85.99
4814;BME280;15375;48.540;9.268;2023-04-06T01:28:51;97507.75;;;-0.41;85.21
4814;BME280;15375;48.540;9.268;2023-04-06T01:31:17;97534.66;;;-0.10;85.51
4814;BME280;15375;48.540;9.268;2023-04-06T01:33:43;97488.91;;;-0.45;85.39
4814;BME280;15375;48.540;9.268;2023-04-06T01:36:08;97518.09;;;-0.28;85.61
4814;BME280;15375;48.540;9.268;2023-04-06T01:38:34;97507.72;;;-0.29;85.87
4814;BME280;15375;48.540;9.268;2023-04-06T01:40:59;97527.78;;;-0.23;86.38
4814;BME280;15375;48.540;9.268;2023-04-06T01:43:25;97536.25;;;-0.21;87.12
4814;BME280;15375;48.540;9.268;2023-04-06T01:45:51;97432.47;;;-0.80;86.79
4814;BME280;15375;48.540;9.268;2023-04-06T01:48:16;97486.31;;;-0.41;86.23
4814;BME280;15375;48.540;9.268;2023-04-06T01:50:42;97476.97;;;-0.47;85.71
4814;BME280;15375;48.540;9.268;2023-04-06T01:53:07;97472.50;;;-0.43;85.50
4814;BME280;15375;48.540;9.268;2023-04-06T01:55:33;97472.41;;;-0.47;85.75
4814;BME280;15375;48.540;9.268;2023-04-06T01:57:58;97488.56;;;-0.43;86.43
4814;BME280;15375;48.540;9.268;2023-04-06T02:00:23;97502.84;;;-0.39;87.21
4814;BME280;15375;48.540;9.268;2023-04-06T02:02:49;97506.84;;;-0.33;88.13
4814;BME280;15375;48.540;9.268;2023-04-06T02:05:14;97510.81;;;-0.27;88.18
4814;BME280;15375;48.540;9.268;2023-04-06T02:07:40;97499.72;;;-0.41;88.73
4814;BME280;15375;48.540;9.268;2023-04-06T02:10:11;97514.88;;;-0.33;87.96
4814;BME280;15375;48.540;9.268;2023-04-06T02:12:37;97509.94;;;-0.59;87.48
4814;BME280;15375;48.540;9.268;2023-04-06T02:15:03;97506.41;;;-0.75;88.35
4814;BME280;15375;48.540;9.268;2023-04-06T02:17:28;97491.97;;;-0.86;89.32
4814;BME280;15375;48.540;9.268;2023-04-06T02:19:54;97517.91;;;-0.75;89.78
4814;BME280;15375;48.540;9.268;2023-04-06T02:22:19;97518.59;;;-0.66;90.26
4814;BME280;15375;48.540;9.268;2023-04-06T02:24:44;97502.75;;;-0.83;90.32
4814;BME280;15375;48.540;9.268;2023-04-06T02:27:11;97483.94;;;-0.86;90.79
4814;BME280;15375;48.540;9.268;2023-04-06T02:29:37;97512.69;;;-0.71;90.84
4814;BME280;15375;48.540;9.268;2023-04-06T02:32:02;97501.28;;;-0.68;90.50
4814;BME280;15375;48.540;9.268;2023-04-06T02:34:28;97468.00;;;-0.95;91.12
4814;BME280;15375;48.540;9.268;2023-04-06T02:36:55;97520.91;;;-0.64;91.73
4814;BME280;15375;48.540;9.268;2023-04-06T02:39:20;97484.41;;;-0.96;90.75
4814;BME280;15375;48.540;9.268;2023-04-06T02:41:45;97499.09;;;-0.90;92.19
4814;BME280;15375;48.540;9.268;2023-04-06T02:44:11;97476.41;;;-1.08;91.73
4814;BME280;15375;48.540;9.268;2023-04-06T02:46:36;97485.88;;;-0.99;92.35
4814;BME280;15375;48.540;9.268;2023-04-06T02:49:02;97511.16;;;-0.84;92.32
4814;BME280;15375;48.540;9.268;2023-04-06T02:51:27;97484.97;;;-1.03;92.03
4814;BME280;15375;48.540;9.268;2023-04-06T02:53:53;97506.59;;;-0.96;93.63
4814;BME280;15375;48.540;9.268;2023-04-06T02:56:18;97493.69;;;-1.06;92.92
4814;BME280;15375;48.540;9.268;2023-04-06T02:58:46;97496.03;;;-1.04;92.76
4814;BME280;15375;48.540;9.268;2023-04-06T03:01:11;97509.50;;;-1.13;93.29
4814;BME280;15375;48.540;9.268;2023-04-06T03:03:36;97496.38;;;-1.30;94.67
4814;BME280;15375;48.540;9.268;2023-04-06T03:06:02;97471.97;;;-1.41;94.74
4814;BME280;15375;48.540;9.268;2023-04-06T03:08:28;97490.16;;;-1.46;95.11
4814;BME280;15375;48.540;9.268;2023-04-06T03:10:53;97497.06;;;-1.45;96.83
4814;BME280;15375;48.540;9.268;2023-04-06T03:13:19;97487.50;;;-1.46;97.59
4814;BME280;15375;48.540;9.268;2023-04-06T03:15:44;97474.56;;;-1.44;98.24
4814;BME280;15375;48.540;9.268;2023-04-06T03:18:10;97465.88;;;-1.41;97.56
4814;BME280;15375;48.540;9.268;2023-04-06T03:20:35;97489.69;;;-1.24;97.38
4814;BME280;15375;48.540;9.268;2023-04-06T03:23:00;97486.59;;;-1.26;96.77
4814;BME280;15375;48.540;9.268;2023-04-06T03:25:26;97450.13;;;-1.43;97.01
4814;BME280;15375;48.540;9.268;2023-04-06T03:27:51;97485.13;;;-1.23;96.83
4814;BME280;15375;48.540;9.268;2023-04-06T03:30:17;97491.13;;;-1.14;96.83
4814;BME280;15375;48.540;9.268;2023-04-06T03:32:45;97522.56;;;-0.99;96.39
4814;BME280;15375;48.540;9.268;2023-04-06T03:35:11;97494.59;;;-1.14;96.17
4814;BME280;15375;48.540;9.268;2023-04-06T03:37:36;97494.81;;;-1.19;95.50
4814;BME280;15375;48.540;9.268;2023-04-06T03:40:03;97512.97;;;-1.12;95.63
4814;BME280;15375;48.540;9.268;2023-04-06T03:42:28;97498.72;;;-1.16;95.86
4814;BME280;15375;48.540;9.268;2023-04-06T03:44:54;97504.41;;;-1.30;95.17
4814;BME280;15375;48.540;9.268;2023-04-06T03:47:29;97515.00;;;-1.21;96.10
4814;BME280;15375;48.540;9.268;2023-04-06T03:49:54;97523.03;;;-1.21;96.00
4814;BME280;15375;48.540;9.268;2023-04-06T03:52:20;97487.72;;;-1.51;96.33
4814;BME280;15375;48.540;9.268;2023-04-06T03:54:48;97522.81;;;-1.28;97.28
4814;BME280;15375;48.540;9.268;2023-04-06T03:57:13;97507.09;;;-1.42;97.51
4814;BME280;15375;48.540;9.268;2023-04-06T03:59:39;97513.09;;;-1.45;96.94
4814;BME280;15375;48.540;9.268;2023-04-06T04:02:05;97510.88;;;-1.43;97.76
4814;BME280;15375;48.540;9.268;2023-04-06T04:04:30;97505.31;;;-1.50;97.64
4814;BME280;15375;48.540;9.268;2023-04-06T04:06:56;97507.88;;;-1.54;98.42
4814;BME280;15375;48.540;9.268;2023-04-06T04:09:21;97524.94;;;-1.34;99.04
4814;BME280;15375;48.540;9.268;2023-04-06T04:11:47;97490.94;;;-1.58;98.27
4814;BME280;15375;48.540;9.268;2023-04-06T04:14:12;97544.53;;;-1.30;98.36
4814;BME280;15375;48.540;9.268;2023-04-06T04:16:37;97514.25;;;-1.46;98.96
4814;BME280;15375;48.540;9.268;2023-04-06T04:19:04;97501.31;;;-1.56;98.55
4814;BME280;15375;48.540;9.268;2023-04-06T04:21:30;97529.16;;;-1.33;98.42
4814;BME280;15375;48.540;9.268;2023-04-06T04:23:56;97519.25;;;-1.45;98.43
4814;BME280;15375;48.540;9.268;2023-04-06T04:26:22;97500.63;;;-1.65;98.53
4814;BME280;15375;48.540;9.268;2023-04-06T04:28:47;97525.91;;;-1.51;99.33
4814;BME280;15375;48.540;9.268;2023-04-06T04:31:12;97517.56;;;-1.49;98.69
4814;BME280;15375;48.540;9.268;2023-04-06T04:33:38;97535.41;;;-1.41;98.28
4814;BME280;15375;48.540;9.268;2023-04-06T04:36:03;97516.00;;;-1.62;98.98
4814;BME280;15375;48.540;9.268;2023-04-06T04:38:29;97500.97;;;-1.67;99.45
4814;BME280;15375;48.540;9.268;2023-04-06T04:40:54;97521.13;;;-1.57;99.29
4814;BME280;15375;48.540;9.268;2023-04-06T04:43:20;97520.47;;;-1.54;99.87
4814;BME280;15375;48.540;9.268;2023-04-06T04:45:45;97557.13;;;-1.31;99.22
4814;BME280;15375;48.540;9.268;2023-04-06T04:48:10;97559.38;;;-1.33;98.37
4814;BME280;15375;48.540;9.268;2023-04-06T04:50:36;97507.75;;;-1.57;98.64
4814;BME280;15375;48.540;9.268;2023-04-06T04:53:01;97556.03;;;-1.42;98.64
4814;BME280;15375;48.540;9.268;2023-04-06T04:55:27;97532.19;;;-1.59;99.14
4814;BME280;15375;48.540;9.268;2023-04-06T04:57:54;97520.13;;;-1.65;99.63
4814;BME280;15375;48.540;9.268;2023-04-06T05:00:19;97513.00;;;-1.73;98.91
4814;BME280;15375;48.540;9.268;2023-04-06T05:02:45;97526.13;;;-1.68;99.59
4814;BME280;15375;48.540;9.268;2023-04-06T05:05:11;97533.28;;;-1.60;99.44
4814;BME280;15375;48.540;9.268;2023-04-06T05:07:36;97514.00;;;-1.65;99.52
4814;BME280;15375;48.540;9.268;2023-04-06T05:10:02;97507.31;;;-1.59;99.25
4814;BME280;15375;48.540;9.268;2023-04-06T05:12:28;97533.28;;;-1.36;99.55
4814;BME280;15375;48.540;9.268;2023-04-06T05:14:53;97536.50;;;-1.30;98.59
4814;BME280;15375;48.540;9.268;2023-04-06T05:17:19;97524.81;;;-1.38;97.92
4814;BME280;15375;48.540;9.268;2023-04-06T05:19:45;97541.00;;;-1.34;97.14
4814;BME280;15375;48.540;9.268;2023-04-06T05:22:10;97509.66;;;-1.46;98.79
4814;BME280;15375;48.540;9.268;2023-04-06T05:24:36;97525.28;;;-1.23;97.74
4814;BME280;15375;48.540;9.268;2023-04-06T05:27:01;97544.53;;;-1.18;96.77
4814;BME280;15375;48.540;9.268;2023-04-06T05:29:27;97520.34;;;-1.21;95.92
4814;BME280;15375;48.540;9.268;2023-04-06T05:31:52;97564.03;;;-0.81;96.62
4814;BME280;15375;48.540;9.268;2023-04-06T05:34:18;97551.88;;;-0.91;95.26
4814;BME280;15375;48.540;9.268;2023-04-06T05:36:43;97574.03;;;-0.66;95.44
4814;BME280;15375;48.540;9.268;2023-04-06T05:39:09;97546.28;;;-0.74;94.86
4814;BME280;15375;48.540;9.268;2023-04-06T05:41:34;97561.25;;;-0.45;93.34
4814;BME280;15375;48.540;9.268;2023-04-06T05:44:00;97574.78;;;0.61;90.45
4814;BME280;15375;48.540;9.268;2023-04-06T05:46:25;97553.28;;;2.23;80.75
4814;BME280;15375;48.540;9.268;2023-04-06T05:48:51;97545.09;;;3.36;70.74
4814;BME280;15375;48.540;9.268;2023-04-06T05:51:16;97513.84;;;4.35;67.04
4814;BME280;15375;48.540;9.268;2023-04-06T05:53:41;97523.13;;;5.46;59.17
4814;BME280;15375;48.540;9.268;2023-04-06T05:56:07;97514.19;;;6.95;55.25
4814;BME280;15375;48.540;9.268;2023-04-06T05:58:32;97524.25;;;7.13;53.77
4814;BME280;15375;48.540;9.268;2023-04-06T06:00:59;97548.66;;;8.38;51.71
4814;BME280;15375;48.540;9.268;2023-04-06T06:03:24;97554.53;;;9.32;49.59
4814;BME280;15375;48.540;9.268;2023-04-06T06:05:50;97536.41;;;9.19;48.68
4814;BME280;15375;48.540;9.268;2023-04-06T06:08:15;97563.22;;;11.05;47.74
4814;BME280;15375;48.540;9.268;2023-04-06T06:10:41;97539.69;;;10.92;43.85
4814;BME280;15375;48.540;9.268;2023-04-06T06:13:06;97552.97;;;10.63;45.28
4814;BME280;15375;48.540;9.268;2023-04-06T06:15:32;97541.00;;;11.07;42.56
4814;BME280;15375;48.540;9.268;2023-04-06T06:17:57;97540.53;;;11.97;42.01
4814;BME280;15375;48.540;9.268;2023-04-06T06:20:23;97551.16;;;12.83;39.47
4814;BME280;15375;48.540;9.268;2023-04-06T06:22:48;97544.84;;;13.34;39.36
4814;BME280;15375;48.540;9.268;2023-04-06T06:25:13;97566.72;;;12.70;40.29
4814;BME280;15375;48.540;9.268;2023-04-06T06:27:39;97541.06;;;12.08;40.52
4814;BME280;15375;48.540;9.268;2023-04-06T06:30:05;97542.81;;;12.38;40.69
4814;BME280;15375;48.540;9.268;2023-04-06T06:32:30;97563.03;;;12.76;40.50
4814;BME280;15375;48.540;9.268;2023-04-06T06:34:56;97541.63;;;12.55;39.20
4814;BME280;15375;48.540;9.268;2023-04-06T06:37:21;97562.38;;;13.37;38.90
4814;BME280;15375;48.540;9.268;2023-04-06T06:39:46;97536.31;;;13.16;38.37
4814;BME280;15375;48.540;9.268;2023-04-06T06:42:12;97542.84;;;14.62;36.88
4814;BME280;15375;48.540;9.268;2023-04-06T06:44:39;97510.19;;;14.27;37.44
4814;BME280;15375;48.540;9.268;2023-04-06T06:47:04;97518.88;;;14.50;36.83
4814;BME280;15375;48.540;9.268;2023-04-06T06:49:30;97555.06;;;15.80;35.69
4814;BME280;15375;48.540;9.268;2023-04-06T06:51:55;97538.16;;;16.34;34.25
4814;BME280;15375;48.540;9.268;2023-04-06T06:54:20;97549.19;;;16.56;34.91
4814;BME280;15375;48.540;9.268;2023-04-06T06:56:46;97542.50;;;16.66;34.37
4814;BME280;15375;48.540;9.268;2023-04-06T06:59:11;97561.66;;;15.49;35.29
4814;BME280;15375;48.540;9.268;2023-04-06T07:01:37;97562.72;;;14.25;37.05
4814;BME280;15375;48.540;9.268;2023-04-06T07:04:02;97550.47;;;12.79;39.03
4814;BME280;15375;48.540;9.268;2023-04-06T07:06:28;97577.09;;;12.78;39.40
4814;BME280;15375;48.540;9.268;2023-04-06T07:08:56;97581.00;;;12.77;39.22
4814;BME280;15375;48.540;9.268;2023-04-06T07:11:22;97577.78;;;11.22;41.37
4814;BME280;15375;48.540;9.268;2023-04-06T07:13:47;97587.91;;;9.40;44.58
4814;BME280;15375;48.540;9.268;2023-04-06T07:16:12;97592.13;;;9.44;45.71
4814;BME280;15375;48.540;9.268;2023-04-06T07:18:38;97590.59;;;9.43;46.66
4814;BME280;15375;48.540;9.268;2023-04-06T07:21:03;97581.94;;;9.11;47.00
4814;BME280;15375;48.540;9.268;2023-04-06T07:23:29;97585.75;;;9.21;47.38
4814;BME280;15375;48.540;9.268;2023-04-06T07:25:55;97567.22;;;7.35;49.40
4814;BME280;15375;48.540;9.268;2023-04-06T07:28:20;97602.03;;;7.79;50.18
4814;BME280;15375;48.540;9.268;2023-04-06T07:30:46;97589.28;;;7.69;51.40
4814;BME280;15375;48.540;9.268;2023-04-06T07:33:11;97598.94;;;7.77;49.99
4814;BME280;15375;48.540;9.268;2023-04-06T07:35:37;97567.16;;;7.70;51.38
4814;BME280;15375;48.540;9.268;2023-04-06T07:38:02;97592.66;;;8.01;50.60
4814;BME280;15375;48.540;9.268;2023-04-06T07:40:28;97563.00;;;8.39;51.06
4814;BME280;15375;48.540;9.268;2023-04-06T07:42:54;97573.31;;;9.20;49.80
4814;BME280;15375;48.540;9.268;2023-04-06T07:45:20;97575.75;;;9.85;47.58
4814;BME280;15375;48.540;9.268;2023-04-06T07:47:46;97564.06;;;9.88;46.83
4814;BME280;15375;48.540;9.268;2023-04-06T07:50:11;97572.78;;;10.40;46.06
4814;BME280;15375;48.540;9.268;2023-04-06T07:52:40;97560.09;;;9.96;47.33
4814;BME280;15375;48.540;9.268;2023-04-06T07:55:06;97581.75;;;10.67;46.60
4814;BME280;15375;48.540;9.268;2023-04-06T07:57:31;97583.41;;;10.61;46.65
4814;BME280;15375;48.540;9.268;2023-04-06T07:59:57;97573.34;;;9.16;46.69
4814;BME280;15375;48.540;9.268;2023-04-06T08:02:22;97558.97;;;7.81;49.93
4814;BME280;15375;48.540;9.268;2023-04-06T08:04:48;97564.00;;;9.17;48.91
4814;BME280;15375;48.540;9.268;2023-04-06T08:07:13;97555.41;;;9.22;49.61
4814;BME280;15375;48.540;9.268;2023-04-06T08:09:42;97574.94;;;10.52;47.95
4814;BME280;15375;48.540;9.268;2023-04-06T08:12:07;97574.69;;;10.97;46.76
4814;BME280;15375;48.540;9.268;2023-04-06T08:14:33;97530.25;;;11.19;44.71
4814;BME280;15375;48.540;9.268;2023-04-06T08:16:58;97564.06;;;11.48;44.92
4814;BME280;15375;48.540;9.268;2023-04-06T08:19:24;97546.66;;;12.21;41.72
4814;BME280;15375;48.540;9.268;2023-04-06T08:21:49;97547.66;;;12.31;42.51
4814;BME280;15375;48.540;9.268;2023-04-06T08:24:16;97544.44;;;12.16;43.96
4814;BME280;15375;48.540;9.268;2023-04-06T08:26:41;97544.84;;;12.34;43.05
4814;BME280;15375;48.540;9.268;2023-04-06T08:29:07;97562.81;;;11.76;42.89
4814;BME280;15375;48.540;9.268;2023-04-06T08:31:35;97538.56;;;11.78;44.44
4814;BME280;15375;48.540;9.268;2023-04-06T08:34:03;97548.41;;;12.31;43.62
4814;BME280;15375;48.540;9.268;2023-04-06T08:36:28;97534.72;;;12.31;42.90
4814;BME280;15375;48.540;9.268;2023-04-06T08:38:54;97542.59;;;12.97;40.71
4814;BME280;15375;48.540;9.268;2023-04-06T08:41:20;97554.06;;;12.92;40.82
4814;BME280;15375;48.540;9.268;2023-04-06T08:46:14;97562.50;;;12.30;43.19
4814;BME280;15375;48.540;9.268;2023-04-06T08:48:41;97549.84;;;12.55;41.73
4814;BME280;15375;48.540;9.268;2023-04-06T08:51:07;97525.72;;;12.66;40.94
4814;BME280;15375;48.540;9.268;2023-04-06T08:53:33;97546.06;;;13.33;42.01
4814;BME280;15375;48.540;9.268;2023-04-06T08:55:59;97551.69;;;12.78;40.05
4814;BME280;15375;48.540;9.268;2023-04-06T08:58:28;97525.78;;;13.60;39.53
4814;BME280;15375;48.540;9.268;2023-04-06T09:00:54;97539.03;;;13.90;39.86
4814;BME280;15375;48.540;9.268;2023-04-06T09:03:20;97503.41;;;12.52;40.04
4814;BME280;15375;48.540;9.268;2023-04-06T09:05:46;97521.66;;;12.23;40.52
4814;BME280;15375;48.540;9.268;2023-04-06T09:08:12;97541.31;;;11.98;39.86
4814;BME280;15375;48.540;9.268;2023-04-06T09:10:41;97531.22;;;11.95;41.07
4814;BME280;15375;48.540;9.268;2023-04-06T09:13:08;97524.31;;;13.26;40.23
4814;BME280;15375;48.540;9.268;2023-04-06T09:15:34;97536.22;;;13.65;38.81
4814;BME280;15375;48.540;9.268;2023-04-06T09:18:01;97528.25;;;13.70;39.28
4814;BME280;15375;48.540;9.268;2023-04-06T09:20:26;97522.59;;;12.84;39.04
4814;BME280;15375;48.540;9.268;2023-04-06T09:22:54;97523.63;;;13.22;38.99
4814;BME280;15375;48.540;9.268;2023-04-06T09:25:29;97522.78;;;14.12;38.81
4814;BME280;15375;48.540;9.268;2023-04-06T09:28:04;97526.69;;;14.52;39.20
4814;BME280;15375;48.540;9.268;2023-04-06T09:30:31;97514.44;;;14.15;38.51
4814;BME280;15375;48.540;9.268;2023-04-06T09:32:57;97518.03;;;13.99;38.73
4814;BME280;15375;48.540;9.268;2023-04-06T09:35:24;97521.44;;;13.75;37.98
4814;BME280;15375;48.540;9.268;2023-04-06T09:37:52;97513.50;;;13.35;37.61
4814;BME280;15375;48.540;9.268;2023-04-06T09:40:18;97510.41;;;13.78;36.34
4814;BME280;15375;48.540;9.268;2023-04-06T09:42:46;97514.84;;;14.01;36.12
4814;BME280;15375;48.540;9.268;2023-04-06T09:45:12;97496.13;;;14.12;36.60
4814;BME280;15375;48.540;9.268;2023-04-06T09:47:42;97492.16;;;14.13;36.03
4814;BME280;15375;48.540;9.268;2023-04-06T09:50:10;97499.91;;;14.43;36.46
4814;BME280;15375;48.540;9.268;2023-04-06T09:52:57;97505.38;;;14.43;36.29
4814;BME280;15375;48.540;9.268;2023-04-06T09:55:54;97499.91;;;14.43;36.21
4814;BME280;15375;48.540;9.268;2023-04-06T09:58:23;97498.72;;;14.57;35.22
4814;BME280;15375;48.540;9.268;2023-04-06T10:01:01;97497.91;;;14.82;35.30
4814;BME280;15375;48.540;9.268;2023-04-06T10:06:26;97487.38;;;14.30;35.01
4814;BME280;15375;48.540;9.268;2023-04-06T10:08:52;97485.69;;;13.37;35.01
4814;BME280;15375;48.540;9.268;2023-04-06T10:11:21;97487.31;;;13.92;35.53
4814;BME280;15375;48.540;9.268;2023-04-06T10:13:47;97497.28;;;13.98;34.54
4814;BME280;15375;48.540;9.268;2023-04-06T10:16:14;97496.47;;;14.27;35.62
4814;BME280;15375;48.540;9.268;2023-04-06T10:18:44;97445.09;;;14.02;34.78
4814;BME280;15375;48.540;9.268;2023-04-06T10:21:14;97477.94;;;12.55;36.53
4814;BME280;15375;48.540;9.268;2023-04-06T10:24:00;97486.09;;;13.93;34.16
4814;BME280;15375;48.540;9.268;2023-04-06T10:26:27;97475.75;;;14.38;34.51
4814;BME280;15375;48.540;9.268;2023-04-06T10:28:53;97461.59;;;14.52;34.21
4814;BME280;15375;48.540;9.268;2023-04-06T10:31:27;97486.09;;;14.47;34.44
4814;BME280;15375;48.540;9.268;2023-04-06T10:33:57;97491.66;;;14.68;35.81
4814;BME280;15375;48.540;9.268;2023-04-06T10:36:25;97482.13;;;15.20;34.94
4814;BME280;15375;48.540;9.268;2023-04-06T10:38:59;97464.59;;;15.39;34.29
4814;BME280;15375;48.540;9.268;2023-04-06T10:41:33;97485.47;;;15.71;35.62
4814;BME280;15375;48.540;9.268;2023-04-06T10:43:58;97433.00;;;15.44;34.01
4814;BME280;15375;48.540;9.268;2023-04-06T10:46:26;97470.16;;;16.13;32.94
4814;BME280;15375;48.540;9.268;2023-04-06T10:48:52;97452.81;;;16.25;33.88
4814;BME280;15375;48.540;9.268;2023-04-06T10:51:18;97472.38;;;16.58;32.50
4814;BME280;15375;48.540;9.268;2023-04-06T10:53:45;97465.97;;;16.61;32.15
4814;BME280;15375;48.540;9.268;2023-04-06T10:56:14;97438.25;;;16.25;33.06
4814;BME280;15375;48.540;9.268;2023-04-06T10:58:51;97475.25;;;15.71;32.92
4814;BME280;15375;48.540;9.268;2023-04-06T11:01:18;97468.56;;;14.03;33.14
4814;BME280;15375;48.540;9.268;2023-04-06T11:03:53;97466.50;;;14.20;34.56
4814;BME280;15375;48.540;9.268;2023-04-06T11:06:26;97448.94;;;14.80;34.12
4814;BME280;15375;48.540;9.268;2023-04-06T11:08:52;97461.31;;;14.97;33.83
4814;BME280;15375;48.540;9.268;2023-04-06T11:11:20;97459.66;;;15.00;34.46
4814;BME280;15375;48.540;9.268;2023-04-06T11:13:50;97469.22;;;15.64;34.78
4814;BME280;15375;48.540;9.268;2023-04-06T11:16:18;97458.69;;;14.05;34.02
4814;BME280;15375;48.540;9.268;2023-04-06T11:21:18;97452.31;;;15.65;34.04
4814;BME280;15375;48.540;9.268;2023-04-06T11:23:44;97430.88;;;15.60;33.34
4814;BME280;15375;48.540;9.268;2023-04-06T11:26:13;97441.69;;;15.55;33.50
4814;BME280;15375;48.540;9.268;2023-04-06T11:28:42;97441.22;;;15.56;34.19
4814;BME280;15375;48.540;9.268;2023-04-06T11:31:09;97434.34;;;15.39;33.40
4814;BME280;15375;48.540;9.268;2023-04-06T11:33:36;97431.56;;;15.52;34.94
4814;BME280;15375;48.540;9.268;2023-04-06T11:36:03;97439.63;;;15.89;34.15
4814;BME280;15375;48.540;9.268;2023-04-06T11:38:29;97440.06;;;16.19;34.46
4814;BME280;15375;48.540;9.268;2023-04-06T11:40:55;97418.22;;;16.55;33.15
4814;BME280;15375;48.540;9.268;2023-04-06T11:43:30;97404.84;;;16.44;32.42
4814;BME280;15375;48.540;9.268;2023-04-06T11:46:03;97429.84;;;16.59;34.41
4814;BME280;15375;48.540;9.268;2023-04-06T11:48:29;97410.13;;;16.61;32.22
4814;BME280;15375;48.540;9.268;2023-04-06T11:50:58;97413.97;;;16.72;32.62
4814;BME280;15375;48.540;9.268;2023-04-06T11:53:28;97416.16;;;16.37;32.85
4814;BME280;15375;48.540;9.268;2023-04-06T11:55:55;97403.16;;;16.38;32.87
4814;BME280;15375;48.540;9.268;2023-04-06T11:58:20;97398.38;;;16.29;32.35
4814;BME280;15375;48.540;9.268;2023-04-06T12:00:46;97407.59;;;14.96;32.14
4814;BME280;15375;48.540;9.268;2023-04-06T12:03:12;97419.88;;;15.60;35.07
4814;BME280;15375;48.540;9.268;2023-04-06T12:05:38;97390.69;;;15.84;31.20
4814;BME280;15375;48.540;9.268;2023-04-06T12:08:04;97408.41;;;16.14;32.23
4814;BME280;15375;48.540;9.268;2023-04-06T12:10:29;97408.19;;;15.47;30.61
4814;BME280;15375;48.540;9.268;2023-04-06T12:12:55;97399.13;;;15.25;33.33
4814;BME280;15375;48.540;9.268;2023-04-06T12:15:20;97411.19;;;15.62;32.61
4814;BME280;15375;48.540;9.268;2023-04-06T12:17:47;97395.16;;;15.26;33.19
4814;BME280;15375;48.540;9.268;2023-04-06T12:20:12;97390.28;;;14.74;34.19
4814;BME280;15375;48.540;9.268;2023-04-06T12:22:38;97381.28;;;14.74;33.01
4814;BME280;15375;48.540;9.268;2023-04-06T12:25:04;97380.16;;;14.84;34.60
4814;BME280;15375;48.540;9.268;2023-04-06T12:27:31;97385.81;;;14.67;33.03
4814;BME280;15375;48.540;9.268;2023-04-06T12:29:57;97318.81;;;14.78;35.28
4814;BME280;15375;48.540;9.268;2023-04-06T12:32:22;97382.34;;;15.23;31.91
4814;BME280;15375;48.540;9.268;2023-04-06T12:34:48;97382.19;;;15.26;31.63
4814;BME280;15375;48.540;9.268;2023-04-06T12:37:13;97373.69;;;15.12;34.90
4814;BME280;15375;48.540;9.268;2023-04-06T12:39:38;97388.78;;;15.51;33.08
4814;BME280;15375;48.540;9.268;2023-04-06T12:42:04;97379.34;;;15.52;32.55
4814;BME280;15375;48.540;9.268;2023-04-06T12:44:30;97370.25;;;15.42;32.46
4814;BME280;15375;48.540;9.268;2023-04-06T12:46:55;97345.06;;;15.22;31.32
4814;BME280;15375;48.540;9.268;2023-04-06T12:49:21;97376.28;;;15.50;32.52
4814;BME280;15375;48.540;9.268;2023-04-06T12:51:47;97360.75;;;15.86;31.94
4814;BME280;15375;48.540;9.268;2023-04-06T12:54:12;97376.38;;;15.24;30.35
4814;BME280;15375;48.540;9.268;2023-04-06T12:56:38;97377.69;;;14.64;31.15
4814;BME280;15375;48.540;9.268;2023-04-06T12:59:03;97372.25;;;14.86;30.60
4814;BME280;15375;48.540;9.268;2023-04-06T13:01:29;97352.88;;;14.67;30.03
4814;BME280;15375;48.540;9.268;2023-04-06T13:03:58;97368.56;;;15.01;32.45
4814;BME280;15375;48.540;9.268;2023-04-06T13:06:24;97375.84;;;14.48;32.78
4814;BME280;15375;48.540;9.268;2023-04-06T13:08:53;97351.94;;;14.11;32.68
4814;BME280;15375;48.540;9.268;2023-04-06T13:11:19;97369.50;;;14.26;34.16
4814;BME280;15375;48.540;9.268;2023-04-06T13:13:47;97387.94;;;14.38;34.21
4814;BME280;15375;48.540;9.268;2023-04-06T13:16:12;97376.09;;;14.41;35.20